Time;durP1;ratioP1;P1;durP2;ratioP2;P2;SDS_P1;SDS_P2;PMS_P1;PMS_P2;Temp;Humidity;BMP_temperature;BMP_pressure;BME280_temperature;BME280_humidity;BME280_pressure;Samples;Min_cycle;Max_cycle;Signal;HPM_P1;HPM_P2
2023/09/29 00:01:46;;;;;;;3.20;2.90;;;;;;;;;;5136876;28;20226;-91
2023/09/29 00:04:14;;;;;;;3.17;2.88;;;;;;;;;;5137665;28;20205;-92
2023/09/29 00:06:43;;;;;;;4.68;3.55;;;;;;;;;;5137031;28;20198;-91
2023/09/29 00:09:12;;;;;;;3.03;2.80;;;;;;;;;;5119261;28;20285;-92
2023/09/29 00:11:41;;;;;;;3.20;2.90;;;;;;;;;;5130991;28;20298;-92
2023/09/29 00:14:08;;;;;;;3.85;2.97;;;;;;;;;;5137313;28;20230;-91
2023/09/29 00:16:36;;;;;;;4.15;3.20;;;;;;;;;;5136772;28;20278;-92
2023/09/29 00:19:03;;;;;;;3.25;3.05;;;;;;;;;;5136874;28;20225;-90
2023/09/29 00:21:31;;;;;;;4.22;3.63;;;;;;;;;;5137374;28;20277;-92
2023/09/29 00:24:00;;;;;;;4.68;3.95;;;;;;;;;;5147999;28;20219;-91
2023/09/29 00:26:28;;;;;;;3.88;3.58;;;;;;;;;;5158283;27;20195;-90
2023/09/29 00:28:56;;;;;;;5.95;4.03;;;;;;;;;;5158174;27;20234;-91
2023/09/29 00:31:23;;;;;;;4.63;4.22;;;;;;;;;;5156778;27;20190;-92
2023/09/29 00:33:51;;;;;;;4.80;4.40;;;;;;;;;;5142530;27;20728;-91
2023/09/29 00:36:18;;;;;;;5.07;4.20;;;;;;;;;;5141544;27;20245;-92
2023/09/29 00:38:46;;;;;;;4.22;3.83;;;;;;;;;;5135487;27;20244;-91
2023/09/29 00:41:15;;;;;;;4.75;4.35;;;;;;;;;;5131589;27;20207;-92
2023/09/29 00:43:43;;;;;;;5.07;3.92;;;;;;;;;;5149441;27;20208;-92
2023/09/29 00:46:12;;;;;;;4.05;3.70;;;;;;;;;;5139178;27;20728;-91
2023/09/29 00:48:39;;;;;;;3.63;3.33;;;;;;;;;;5145649;27;20229;-92
2023/09/29 00:51:08;;;;;;;6.28;4.00;;;;;;;;;;5150470;27;20660;-93
2023/09/29 00:53:38;;;;;;;4.15;3.80;;;;;;;;;;5146295;27;20256;-93
2023/09/29 00:56:06;;;;;;;3.17;2.88;;;;;;;;;;5152786;27;20199;-91
2023/09/29 00:58:35;;;;;;;2.70;2.50;;;;;;;;;;5161167;27;20191;-91
2023/09/29 01:01:06;;;;;;;2.42;2.20;;;;;;;;;;5153097;27;20216;-93
2023/09/29 01:03:34;;;;;;;2.15;2.05;;;;;;;;;;5143743;27;20195;-93
2023/09/29 01:06:01;;;;;;;2.13;2.03;;;;;;;;;;5140580;27;20667;-94
2023/09/29 01:08:29;;;;;;;3.10;2.90;;;;;;;;;;5132404;27;20314;-93
2023/09/29 01:10:57;;;;;;;2.80;2.60;;;;;;;;;;5133095;27;20290;-92
2023/09/29 01:13:24;;;;;;;2.50;2.30;;;;;;;;;;5120605;27;20736;-92
2023/09/29 01:15:54;;;;;;;3.15;2.95;;;;;;;;;;5120258;28;20311;-93
2023/09/29 01:18:22;;;;;;;3.00;2.70;;;;;;;;;;5119687;28;20249;-93
2023/09/29 01:20:50;;;;;;;2.33;2.13;;;;;;;;;;5119885;28;20234;-93
2023/09/29 01:23:17;;;;;;;3.67;3.38;;;;;;;;;;5119145;28;20208;-93
2023/09/29 01:25:47;;;;;;;4.10;3.70;;;;;;;;;;5119662;28;20278;-92
2023/09/29 01:28:14;;;;;;;2.85;2.65;;;;;;;;;;5120124;27;20438;-93
2023/09/29 01:30:43;;;;;;;2.13;2.03;;;;;;;;;;5119412;28;20623;-92
2023/09/29 01:33:10;;;;;;;2.28;2.17;;;;;;;;;;5119665;28;20286;-93
2023/09/29 01:35:39;;;;;;;2.03;1.92;;;;;;;;;;5119377;28;20196;-93
2023/09/29 01:38:07;;;;;;;2.22;2.03;;;;;;;;;;5119386;27;20200;-91
2023/09/29 01:40:34;;;;;;;1.73;1.63;;;;;;;;;;5124270;27;20219;-92
2023/09/29 01:43:03;;;;;;;2.10;2.00;;;;;;;;;;5140314;27;20223;-94
2023/09/29 01:45:32;;;;;;;1.73;1.63;;;;;;;;;;5146027;27;20203;-92
2023/09/29 01:48:00;;;;;;;2.03;1.90;;;;;;;;;;5139699;27;20282;-90
2023/09/29 01:50:28;;;;;;;1.75;1.65;;;;;;;;;;5138665;27;20227;-93
2023/09/29 01:52:55;;;;;;;1.70;1.60;;;;;;;;;;5147790;27;20254;-91
2023/09/29 01:55:24;;;;;;;2.58;2.38;;;;;;;;;;5141000;27;20223;-92
2023/09/29 01:57:54;;;;;;;2.38;2.17;;;;;;;;;;5139538;27;20221;-92
2023/09/29 02:00:25;;;;;;;3.63;3.33;;;;;;;;;;5139614;27;20226;-92
2023/09/29 02:02:54;;;;;;;3.45;3.15;;;;;;;;;;5139833;27;20278;-92
2023/09/29 02:05:23;;;;;;;2.60;2.40;;;;;;;;;;5138895;27;20274;-91
2023/09/29 02:07:51;;;;;;;3.47;3.17;;;;;;;;;;5139494;27;20201;-91
2023/09/29 02:10:20;;;;;;;3.20;3.00;;;;;;;;;;5122737;27;20310;-92
2023/09/29 02:12:55;;;;;;;4.25;3.92;;;;;;;;;;5148291;27;20199;-93
2023/09/29 02:15:25;;;;;;;3.20;2.90;;;;;;;;;;5140399;27;20250;-91
2023/09/29 02:17:52;;;;;;;2.60;2.42;;;;;;;;;;5141703;27;20222;-92
2023/09/29 02:20:28;;;;;;;2.88;2.67;;;;;;;;;;5139864;27;20222;-91
2023/09/29 02:22:56;;;;;;;2.63;2.42;;;;;;;;;;5143263;27;20194;-92
2023/09/29 02:25:25;;;;;;;2.70;2.40;;;;;;;;;;5144978;27;20258;-91
2023/09/29 02:27:54;;;;;;;2.92;2.72;;;;;;;;;;5144751;27;20195;-91
2023/09/29 02:30:24;;;;;;;3.08;2.88;;;;;;;;;;5140164;27;20321;-92
2023/09/29 02:32:53;;;;;;;4.07;3.78;;;;;;;;;;5139449;27;20230;-91
2023/09/29 02:35:21;;;;;;;3.67;3.38;;;;;;;;;;5139484;27;20199;-92
2023/09/29 02:37:52;;;;;;;4.50;3.53;;;;;;;;;;5139098;27;20289;-92
2023/09/29 02:40:19;;;;;;;4.00;3.70;;;;;;;;;;5121938;27;20286;-92
2023/09/29 02:42:47;;;;;;;4.35;3.97;;;;;;;;;;5139173;27;20615;-93
2023/09/29 02:45:16;;;;;;;2.88;2.67;;;;;;;;;;5138241;27;20290;-93
2023/09/29 02:47:46;;;;;;;2.35;2.15;;;;;;;;;;5138926;27;20225;-91
2023/09/29 02:50:14;;;;;;;3.42;2.83;;;;;;;;;;5138156;27;20242;-92
2023/09/29 02:52:42;;;;;;;3.50;3.20;;;;;;;;;;5138077;27;20639;-92
2023/09/29 02:55:12;;;;;;;2.55;2.35;;;;;;;;;;5137829;27;20198;-91
2023/09/29 02:57:42;;;;;;;2.83;2.63;;;;;;;;;;5139564;27;20199;-91
2023/09/29 03:00:15;;;;;;;4.25;2.72;;;;;;;;;;5137974;27;20360;-92
2023/09/29 03:02:44;;;;;;;3.53;3.22;;;;;;;;;;5138270;27;20205;-91
2023/09/29 03:05:14;;;;;;;2.35;2.15;;;;;;;;;;5137227;27;20285;-91
2023/09/29 03:07:42;;;;;;;2.65;2.47;;;;;;;;;;5138851;27;20195;-92
2023/09/29 03:10:12;;;;;;;3.63;3.33;;;;;;;;;;5120126;27;20290;-92
2023/09/29 03:12:40;;;;;;;8.15;4.25;;;;;;;;;;5138454;27;20632;-91
2023/09/29 03:15:09;;;;;;;3.22;2.65;;;;;;;;;;5138489;27;20206;-92
2023/09/29 03:17:37;;;;;;;2.42;2.20;;;;;;;;;;5137246;27;20198;-91
2023/09/29 03:20:11;;;;;;;2.60;2.40;;;;;;;;;;5137499;27;20318;-92
2023/09/29 03:22:38;;;;;;;2.85;2.65;;;;;;;;;;5137919;27;20256;-91
2023/09/29 03:25:07;;;;;;;3.17;2.97;;;;;;;;;;5138307;27;20467;-91
2023/09/29 03:27:35;;;;;;;4.45;4.15;;;;;;;;;;5137816;27;20270;-92
2023/09/29 03:30:04;;;;;;;3.65;3.35;;;;;;;;;;5137030;27;20223;-91
2023/09/29 03:32:32;;;;;;;3.00;2.70;;;;;;;;;;5137477;27;20248;-92
2023/09/29 03:35:00;;;;;;;2.85;2.65;;;;;;;;;;5137613;27;20225;-92
2023/09/29 03:37:29;;;;;;;2.83;2.63;;;;;;;;;;5137823;27;20226;-92
2023/09/29 03:39:56;;;;;;;3.88;3.47;;;;;;;;;;5120095;27;20230;-92
2023/09/29 03:42:24;;;;;;;3.17;2.92;;;;;;;;;;5136985;27;20214;-92
2023/09/29 03:44:51;;;;;;;2.38;2.22;;;;;;;;;;5136898;27;20187;-91
2023/09/29 03:47:20;;;;;;;2.80;2.60;;;;;;;;;;5148183;28;20221;-90
2023/09/29 03:49:48;;;;;;;3.60;3.30;;;;;;;;;;5119540;28;20691;-92
2023/09/29 03:52:15;;;;;;;5.20;4.75;;;;;;;;;;5124083;28;20239;-91
2023/09/29 03:54:44;;;;;;;5.95;5.10;;;;;;;;;;5112955;28;20199;-90
2023/09/29 03:57:12;;;;;;;4.35;3.97;;;;;;;;;;5112805;28;20191;-91
2023/09/29 03:59:39;;;;;;;4.50;3.70;;;;;;;;;;5112013;28;20260;-92
2023/09/29 04:02:07;;;;;;;3.42;3.13;;;;;;;;;;5112615;28;20298;-91
2023/09/29 04:04:35;;;;;;;4.10;3.80;;;;;;;;;;5112483;28;20271;-92
2023/09/29 04:07:03;;;;;;;3.50;3.20;;;;;;;;;;5113433;28;20290;-92
2023/09/29 04:09:30;;;;;;;2.75;2.55;;;;;;;;;;5116307;28;20211;-91
2023/09/29 04:11:59;;;;;;;2.30;2.20;;;;;;;;;;5116137;28;20200;-92
2023/09/29 04:14:27;;;;;;;3.03;2.83;;;;;;;;;;5116565;28;20816;-92
2023/09/29 04:16:55;;;;;;;2.60;2.40;;;;;;;;;;5115992;28;20740;-92
2023/09/29 04:19:22;;;;;;;3.42;3.22;;;;;;;;;;5108046;28;20588;-92
2023/09/29 04:21:50;;;;;;;2.40;2.20;;;;;;;;;;5121825;27;20290;-91
2023/09/29 04:24:18;;;;;;;2.50;2.30;;;;;;;;;;5136706;27;20381;-92
2023/09/29 04:26:45;;;;;;;2.13;2.00;;;;;;;;;;5139606;27;20267;-91
2023/09/29 04:29:14;;;;;;;1.88;1.77;;;;;;;;;;5135868;27;20298;-91
2023/09/29 04:31:42;;;;;;;2.63;2.42;;;;;;;;;;5136439;27;20287;-92
2023/09/29 04:34:09;;;;;;;2.53;2.33;;;;;;;;;;5142502;27;20218;-91
2023/09/29 04:36:37;;;;;;;2.25;2.05;;;;;;;;;;5141834;27;20226;-91
2023/09/29 04:39:05;;;;;;;2.47;2.28;;;;;;;;;;5136453;27;20219;-91
2023/09/29 04:41:32;;;;;;;2.33;2.13;;;;;;;;;;5136404;27;20195;-91
2023/09/29 04:44:03;;;;;;;2.10;2.00;;;;;;;;;;5135959;27;20282;-92
2023/09/29 04:46:33;;;;;;;1.77;1.67;;;;;;;;;;5135613;27;20239;-92
2023/09/29 04:49:03;;;;;;;1.67;1.58;;;;;;;;;;5127735;27;20284;-92
2023/09/29 04:51:32;;;;;;;2.20;2.05;;;;;;;;;;5128053;27;20274;-90
2023/09/29 04:54:00;;;;;;;2.20;2.00;;;;;;;;;;5160488;27;20239;-90
2023/09/29 04:56:28;;;;;;;2.50;2.30;;;;;;;;;;5160199;27;20186;-91
2023/09/29 04:58:56;;;;;;;2.10;2.00;;;;;;;;;;5156125;27;20218;-92
2023/09/29 05:01:24;;;;;;;2.28;2.08;;;;;;;;;;5139827;27;20218;-91
2023/09/29 05:03:53;;;;;;;2.15;2.05;;;;;;;;;;5138517;27;20260;-91
2023/09/29 05:06:22;;;;;;;3.33;2.72;;;;;;;;;;5144897;27;20448;-90
2023/09/29 05:08:49;;;;;;;2.78;2.58;;;;;;;;;;5135580;27;20564;-90
2023/09/29 05:11:24;;;;;;;3.08;2.25;;;;;;;;;;5136047;27;20680;-92
2023/09/29 05:13:54;;;;;;;2.20;2.10;;;;;;;;;;5136995;27;20195;-91
2023/09/29 05:16:21;;;;;;;2.05;1.95;;;;;;;;;;5137204;27;20482;-92
2023/09/29 05:18:53;;;;;;;2.20;2.00;;;;;;;;;;5124159;27;20258;-92
2023/09/29 05:21:24;;;;;;;2.05;1.95;;;;;;;;;;5113372;28;20759;-91
2023/09/29 05:23:51;;;;;;;2.50;2.33;;;;;;;;;;5115633;28;20215;-92
2023/09/29 05:26:19;;;;;;;2.08;1.98;;;;;;;;;;5124884;28;20286;-92
2023/09/29 05:28:49;;;;;;;2.72;2.53;;;;;;;;;;5122838;28;20228;-94
2023/09/29 05:31:17;;;;;;;4.25;3.67;;;;;;;;;;5123966;28;20220;-93
2023/09/29 05:33:45;;;;;;;4.22;3.83;;;;;;;;;;5128108;28;20253;-92
2023/09/29 05:36:12;;;;;;;4.95;4.55;;;;;;;;;;5124889;28;20263;-93
2023/09/29 05:38:41;;;;;;;6.65;4.50;;;;;;;;;;5119747;28;20286;-92
2023/09/29 05:41:09;;;;;;;5.05;4.35;;;;;;;;;;5120618;28;20214;-93
2023/09/29 05:43:36;;;;;;;4.13;3.80;;;;;;;;;;5123939;28;20267;-92
2023/09/29 05:46:04;;;;;;;4.22;3.83;;;;;;;;;;5124992;28;20299;-93
2023/09/29 05:48:31;;;;;;;3.17;2.97;;;;;;;;;;5121947;28;20275;-92
2023/09/29 05:51:00;;;;;;;2.13;2.03;;;;;;;;;;5142368;27;20278;-92
2023/09/29 05:53:27;;;;;;;3.00;2.78;;;;;;;;;;5141390;27;20598;-94
2023/09/29 05:55:57;;;;;;;5.18;3.65;;;;;;;;;;5149771;27;20309;-93
2023/09/29 05:58:25;;;;;;;4.78;4.30;;;;;;;;;;5147654;27;20199;-92
2023/09/29 06:00:53;;;;;;;4.57;3.92;;;;;;;;;;5139908;27;20282;-92
2023/09/29 06:03:20;;;;;;;3.40;3.20;;;;;;;;;;5140406;27;20258;-93
2023/09/29 06:05:48;;;;;;;2.60;2.42;;;;;;;;;;5132896;27;20226;-93
2023/09/29 06:08:15;;;;;;;2.60;2.40;;;;;;;;;;5137255;27;20205;-92
2023/09/29 06:10:43;;;;;;;2.53;2.28;;;;;;;;;;5137515;27;20223;-93
2023/09/29 06:13:12;;;;;;;2.22;2.03;;;;;;;;;;5137576;27;20277;-92
2023/09/29 06:15:39;;;;;;;2.67;2.50;;;;;;;;;;5138398;27;20699;-92
2023/09/29 06:18:07;;;;;;;2.72;2.45;;;;;;;;;;5137329;27;20197;-92
2023/09/29 06:20:35;;;;;;;3.53;2.67;;;;;;;;;;5146129;27;20254;-93
2023/09/29 06:23:02;;;;;;;2.60;2.40;;;;;;;;;;5136784;27;20227;-93
2023/09/29 06:25:30;;;;;;;2.50;2.30;;;;;;;;;;5136659;27;20229;-93
2023/09/29 06:27:58;;;;;;;2.03;1.92;;;;;;;;;;5135934;27;20198;-93
2023/09/29 06:30:27;;;;;;;3.25;2.42;;;;;;;;;;5135686;27;20250;-92
2023/09/29 06:32:55;;;;;;;2.28;2.13;;;;;;;;;;5136212;27;20318;-92
2023/09/29 06:35:23;;;;;;;2.55;2.42;;;;;;;;;;5125750;27;20204;-92
2023/09/29 06:37:52;;;;;;;2.03;1.92;;;;;;;;;;5130263;27;20273;-93
2023/09/29 06:40:19;;;;;;;2.00;1.90;;;;;;;;;;5139807;27;20310;-91
2023/09/29 06:42:47;;;;;;;2.08;1.98;;;;;;;;;;5137521;27;20244;-92
2023/09/29 06:45:15;;;;;;;2.53;2.33;;;;;;;;;;5137325;27;20282;-93
2023/09/29 06:47:44;;;;;;;2.63;2.42;;;;;;;;;;5138930;27;20656;-93
2023/09/29 06:50:11;;;;;;;2.30;2.10;;;;;;;;;;5137334;27;20302;-91
2023/09/29 06:52:40;;;;;;;3.50;2.72;;;;;;;;;;5137025;27;20214;-93
2023/09/29 06:55:09;;;;;;;2.67;2.47;;;;;;;;;;5138717;27;20222;-93
2023/09/29 06:57:37;;;;;;;2.55;2.25;;;;;;;;;;5137225;27;20191;-92
2023/09/29 07:00:05;;;;;;;2.33;2.13;;;;;;;;;;5138564;27;20218;-92
2023/09/29 07:02:33;;;;;;;2.45;2.25;;;;;;;;;;5139196;27;20424;-92
2023/09/29 07:05:02;;;;;;;2.08;1.98;;;;;;;;;;5125604;27;20208;-91
2023/09/29 07:07:29;;;;;;;1.67;1.58;;;;;;;;;;5133832;27;20198;-90
2023/09/29 07:09:57;;;;;;;2.45;2.25;;;;;;;;;;5134393;27;20241;-92
2023/09/29 07:12:25;;;;;;;6.22;2.75;;;;;;;;;;5135182;27;20271;-92
2023/09/29 07:14:52;;;;;;;3.40;2.97;;;;;;;;;;5135090;27;20666;-92
2023/09/29 07:17:20;;;;;;;3.22;3.03;;;;;;;;;;5135415;27;20656;-91
2023/09/29 07:19:47;;;;;;;2.80;2.60;;;;;;;;;;5134611;27;20210;-90
2023/09/29 07:22:16;;;;;;;4.22;2.90;;;;;;;;;;5135162;27;20683;-91
2023/09/29 07:24:45;;;;;;;3.28;2.25;;;;;;;;;;5134563;27;20605;-92
2023/09/29 07:27:13;;;;;;;6.35;2.90;;;;;;;;;;5136257;27;20199;-93
2023/09/29 07:29:41;;;;;;;3.00;2.80;;;;;;;;;;5138486;27;20225;-92
2023/09/29 07:32:09;;;;;;;3.40;3.10;;;;;;;;;;5140099;27;20282;-92
2023/09/29 07:34:37;;;;;;;2.63;2.42;;;;;;;;;;5135112;27;20199;-92
2023/09/29 07:37:04;;;;;;;2.60;2.20;;;;;;;;;;5129785;27;20290;-92
2023/09/29 07:39:33;;;;;;;2.33;2.13;;;;;;;;;;5139632;27;20290;-93
2023/09/29 07:42:01;;;;;;;2.50;2.03;;;;;;;;;;5137053;27;20195;-92
2023/09/29 07:44:29;;;;;;;2.67;2.33;;;;;;;;;;5138418;27;20254;-93
2023/09/29 07:46:56;;;;;;;2.95;2.10;;;;;;;;;;5138994;28;20276;-92
2023/09/29 07:49:24;;;;;;;3.30;1.98;;;;;;;;;;5144928;28;20279;-93
2023/09/29 07:51:52;;;;;;;2.42;2.03;;;;;;;;;;5145650;27;20197;-93
2023/09/29 07:54:21;;;;;;;2.70;2.50;;;;;;;;;;5143917;28;20254;-93
2023/09/29 07:56:50;;;;;;;2.75;2.35;;;;;;;;;;5142564;28;20199;-93
2023/09/29 07:59:18;;;;;;;2.22;2.05;;;;;;;;;;5140927;28;20225;-93
2023/09/29 08:01:49;;;;;;;2.17;1.88;;;;;;;;;;5143791;28;20221;-93
2023/09/29 08:04:17;;;;;;;2.45;2.10;;;;;;;;;;5147894;28;20228;-93
2023/09/29 08:06:45;;;;;;;2.22;2.05;;;;;;;;;;5127881;28;20199;-94
2023/09/29 08:09:13;;;;;;;2.97;2.67;;;;;;;;;;5100667;28;20239;-92
2023/09/29 08:11:42;;;;;;;2.28;2.05;;;;;;;;;;5095424;28;20234;-92
2023/09/29 08:14:12;;;;;;;2.83;2.47;;;;;;;;;;5095056;28;20697;-92
2023/09/29 08:16:40;;;;;;;2.45;2.25;;;;;;;;;;5094707;28;20192;-92
2023/09/29 08:19:08;;;;;;;2.97;2.78;;;;;;;;;;5094246;28;20250;-91
2023/09/29 08:21:35;;;;;;;5.40;2.20;;;;;;;;;;5095275;28;20204;-92
2023/09/29 08:24:05;;;;;;;1.85;1.75;;;;;;;;;;5094570;28;20214;-92
2023/09/29 08:26:32;;;;;;;2.25;2.08;;;;;;;;;;5094265;28;20356;-93
2023/09/29 08:29:00;;;;;;;2.65;2.20;;;;;;;;;;5094455;28;20301;-93
2023/09/29 08:31:29;;;;;;;2.40;2.20;;;;;;;;;;5095978;28;20208;-94
2023/09/29 08:33:57;;;;;;;2.60;2.40;;;;;;;;;;5095746;28;20220;-92
2023/09/29 08:36:25;;;;;;;2.60;2.40;;;;;;;;;;5116661;28;20630;-93
2023/09/29 08:38:53;;;;;;;3.08;2.50;;;;;;;;;;5140107;28;20247;-93
2023/09/29 08:41:27;;;;;;;3.22;2.40;;;;;;;;;;5136454;28;20579;-92
2023/09/29 08:43:55;;;;;;;2.55;2.35;;;;;;;;;;5136401;28;20203;-93
2023/09/29 08:46:22;;;;;;;3.35;2.40;;;;;;;;;;5134826;28;20203;-93
2023/09/29 08:48:52;;;;;;;2.80;2.60;;;;;;;;;;5134316;28;20219;-92
2023/09/29 08:51:20;;;;;;;3.20;2.90;;;;;;;;;;5134907;28;20286;-92
2023/09/29 08:53:50;;;;;;;3.13;2.80;;;;;;;;;;5141363;27;20219;-92
2023/09/29 08:56:18;;;;;;;3.05;2.70;;;;;;;;;;5148143;27;20753;-94
2023/09/29 08:58:46;;;;;;;4.00;2.88;;;;;;;;;;5140853;27;20651;-93
2023/09/29 09:01:14;;;;;;;2.55;2.35;;;;;;;;;;5139802;27;20210;-93
2023/09/29 09:03:42;;;;;;;4.22;2.97;;;;;;;;;;5139580;27;20199;-93
2023/09/29 09:06:24;;;;;;;5.80;3.13;;;;;;;;;;5130548;27;20274;-91
2023/09/29 09:08:53;;;;;;;4.10;2.63;;;;;;;;;;5133965;27;20233;-93
2023/09/29 09:11:21;;;;;;;3.10;2.78;;;;;;;;;;5140175;27;20222;-92
2023/09/29 09:14:03;;;;;;;2.75;2.55;;;;;;;;;;5140387;27;20218;-93
2023/09/29 09:16:31;;;;;;;2.60;2.40;;;;;;;;;;5138733;27;20206;-93
2023/09/29 09:19:10;;;;;;;2.85;2.58;;;;;;;;;;5154489;27;20286;-91
2023/09/29 09:21:39;;;;;;;2.83;2.42;;;;;;;;;;5161991;27;20190;-91
2023/09/29 09:24:17;;;;;;;2.65;2.45;;;;;;;;;;5162037;27;20206;-90
2023/09/29 09:26:46;;;;;;;3.20;2.90;;;;;;;;;;5155568;27;20199;-93
2023/09/29 09:29:15;;;;;;;3.40;3.00;;;;;;;;;;5146913;27;20211;-92
2023/09/29 09:31:50;;;;;;;3.38;2.80;;;;;;;;;;5142369;27;20286;-95
2023/09/29 09:34:18;;;;;;;4.95;2.70;;;;;;;;;;5138604;27;20243;-94
2023/09/29 09:36:51;;;;;;;2.75;2.55;;;;;;;;;;5125563;27;20195;-94
2023/09/29 09:39:23;;;;;;;3.10;2.90;;;;;;;;;;5138143;27;20214;-95
2023/09/29 09:41:54;;;;;;;2.85;2.65;;;;;;;;;;5138391;27;20192;-93
2023/09/29 09:44:22;;;;;;;2.75;2.30;;;;;;;;;;5137903;27;20218;-94
2023/09/29 09:47:00;;;;;;;2.95;2.65;;;;;;;;;;5137725;27;20206;-93
2023/09/29 09:49:36;;;;;;;2.95;2.50;;;;;;;;;;5137397;27;20230;-93
2023/09/29 09:52:10;;;;;;;3.10;2.63;;;;;;;;;;5138014;27;20233;-94
2023/09/29 09:54:44;;;;;;;4.03;3.45;;;;;;;;;;5136682;27;20313;-92
2023/09/29 09:57:13;;;;;;;4.55;3.28;;;;;;;;;;5137072;27;20252;-94
2023/09/29 09:59:44;;;;;;;3.33;3.03;;;;;;;;;;5137488;27;20310;-93
2023/09/29 10:02:12;;;;;;;4.25;3.75;;;;;;;;;;5138314;27;20251;-94
2023/09/29 10:04:40;;;;;;;3.22;2.92;;;;;;;;;;5133376;27;20262;-93
2023/09/29 10:07:09;;;;;;;3.63;2.33;;;;;;;;;;5129902;27;20291;-93
2023/09/29 10:09:44;;;;;;;2.95;2.63;;;;;;;;;;5138124;27;20700;-92
2023/09/29 10:12:24;;;;;;;3.20;2.90;;;;;;;;;;5139200;27;20232;-90
2023/09/29 10:14:53;;;;;;;3.08;2.88;;;;;;;;;;5137789;27;20223;-92
2023/09/29 10:17:21;;;;;;;3.15;2.92;;;;;;;;;;5137714;27;20194;-92
2023/09/29 10:19:51;;;;;;;3.33;3.13;;;;;;;;;;5137274;27;20800;-92
2023/09/29 10:22:28;;;;;;;3.83;3.50;;;;;;;;;;5138077;27;20302;-92
2023/09/29 10:24:59;;;;;;;2.28;2.08;;;;;;;;;;5138072;27;20233;-92
2023/09/29 10:27:31;;;;;;;3.28;2.97;;;;;;;;;;5137817;27;20198;-92
2023/09/29 10:30:17;;;;;;;3.30;2.97;;;;;;;;;;5137611;27;20234;-93
2023/09/29 10:32:48;;;;;;;2.90;2.60;;;;;;;;;;5137629;27;20266;-91
2023/09/29 10:35:20;;;;;;;3.88;3.42;;;;;;;;;;5124795;27;20315;-92
2023/09/29 10:37:54;;;;;;;3.67;3.38;;;;;;;;;;5136925;27;20285;-92
2023/09/29 10:40:25;;;;;;;2.78;2.58;;;;;;;;;;5137456;27;20692;-93
2023/09/29 10:42:56;;;;;;;3.33;3.03;;;;;;;;;;5137218;27;20211;-92
2023/09/29 10:45:30;;;;;;;3.08;2.83;;;;;;;;;;5136806;27;20275;-92
2023/09/29 10:48:03;;;;;;;3.75;3.45;;;;;;;;;;5137321;27;20229;-92
2023/09/29 10:50:30;;;;;;;2.60;2.40;;;;;;;;;;5137151;27;20751;-92
2023/09/29 10:52:59;;;;;;;3.55;3.22;;;;;;;;;;5138121;27;20294;-92
2023/09/29 10:55:27;;;;;;;2.90;2.40;;;;;;;;;;5123882;27;20274;-91
2023/09/29 10:57:58;;;;;;;3.08;2.88;;;;;;;;;;5133233;27;20262;-92
2023/09/29 11:00:26;;;;;;;2.53;2.22;;;;;;;;;;5140161;27;20261;-92
2023/09/29 11:02:53;;;;;;;3.15;2.85;;;;;;;;;;5136843;27;20271;-91
2023/09/29 11:05:21;;;;;;;4.55;3.50;;;;;;;;;;5123221;27;20291;-92
2023/09/29 11:07:50;;;;;;;3.28;2.95;;;;;;;;;;5136523;27;20203;-92
2023/09/29 11:10:20;;;;;;;2.90;2.70;;;;;;;;;;5136670;27;20223;-91
2023/09/29 11:12:48;;;;;;;3.25;2.92;;;;;;;;;;5136192;27;20551;-92
2023/09/29 11:15:19;;;;;;;3.58;3.28;;;;;;;;;;5135904;27;20743;-91
2023/09/29 11:17:48;;;;;;;3.47;3.22;;;;;;;;;;5136017;27;20190;-91
2023/09/29 11:20:25;;;;;;;3.20;2.85;;;;;;;;;;5135812;27;20222;-92
2023/09/29 11:23:07;;;;;;;2.85;2.53;;;;;;;;;;5136290;27;20199;-92
2023/09/29 11:25:47;;;;;;;2.45;2.25;;;;;;;;;;5135924;27;20205;-92
2023/09/29 11:28:15;;;;;;;2.95;2.75;;;;;;;;;;5136245;27;20274;-92
2023/09/29 11:30:43;;;;;;;3.17;2.88;;;;;;;;;;5141641;27;20215;-92
2023/09/29 11:33:12;;;;;;;2.80;2.55;;;;;;;;;;5135621;27;20668;-91
2023/09/29 11:35:45;;;;;;;3.17;2.78;;;;;;;;;;5123037;27;20229;-91
2023/09/29 11:38:16;;;;;;;3.70;2.72;;;;;;;;;;5127547;27;20224;-92
2023/09/29 11:40:45;;;;;;;2.85;2.60;;;;;;;;;;5135924;27;20226;-92
2023/09/29 11:43:13;;;;;;;3.88;3.05;;;;;;;;;;5141437;27;20218;-92
2023/09/29 11:45:41;;;;;;;2.88;2.67;;;;;;;;;;5137413;27;20672;-92
2023/09/29 11:48:08;;;;;;;4.75;3.13;;;;;;;;;;5140780;28;20228;-92
2023/09/29 11:50:36;;;;;;;3.55;3.28;;;;;;;;;;5143261;28;20722;-92
2023/09/29 11:53:06;;;;;;;2.83;2.63;;;;;;;;;;5139617;28;20195;-92
2023/09/29 11:55:35;;;;;;;5.60;3.05;;;;;;;;;;5136542;28;20215;-92
2023/09/29 11:58:04;;;;;;;3.50;3.20;;;;;;;;;;5137564;27;20218;-92
2023/09/29 12:00:32;;;;;;;3.03;2.80;;;;;;;;;;5136292;28;20218;-92
2023/09/29 12:03:00;;;;;;;4.70;4.03;;;;;;;;;;5137741;28;20215;-91
2023/09/29 12:05:27;;;;;;;3.72;3.08;;;;;;;;;;5122625;28;20228;-91
2023/09/29 12:07:55;;;;;;;3.90;3.55;;;;;;;;;;5135248;28;20274;-92
2023/09/29 12:10:23;;;;;;;3.03;2.83;;;;;;;;;;5136291;28;20306;-94
2023/09/29 12:12:51;;;;;;;3.17;2.88;;;;;;;;;;5135662;27;20195;-92
2023/09/29 12:15:21;;;;;;;4.63;3.17;;;;;;;;;;5135358;28;20222;-92
2023/09/29 12:17:48;;;;;;;3.67;3.38;;;;;;;;;;5135793;28;20201;-92
2023/09/29 12:20:16;;;;;;;2.70;2.50;;;;;;;;;;5135754;28;20636;-92
2023/09/29 12:22:45;;;;;;;3.67;3.05;;;;;;;;;;5135383;28;20282;-92
2023/09/29 12:25:14;;;;;;;4.03;3.63;;;;;;;;;;5136169;28;20199;-92
2023/09/29 12:27:43;;;;;;;4.82;3.55;;;;;;;;;;5135962;27;20274;-92
2023/09/29 12:30:13;;;;;;;3.17;2.92;;;;;;;;;;5138915;27;20302;-92
2023/09/29 12:32:42;;;;;;;3.33;3.03;;;;;;;;;;5139344;27;20226;-92
2023/09/29 12:35:12;;;;;;;3.38;3.05;;;;;;;;;;5132360;27;20219;-91
2023/09/29 12:37:40;;;;;;;4.22;3.10;;;;;;;;;;5122492;27;20206;-91
2023/09/29 12:40:10;;;;;;;3.30;3.00;;;;;;;;;;5139582;27;20219;-93
2023/09/29 12:42:40;;;;;;;4.28;2.90;;;;;;;;;;5146914;27;20228;-91
2023/09/29 12:45:10;;;;;;;3.72;3.42;;;;;;;;;;5149879;27;20202;-92
2023/09/29 12:47:38;;;;;;;3.63;3.05;;;;;;;;;;5140438;27;20286;-92
2023/09/29 12:50:09;;;;;;;2.78;2.33;;;;;;;;;;5139707;27;20219;-92
2023/09/29 12:52:37;;;;;;;2.95;2.70;;;;;;;;;;5143483;27;20290;-92
2023/09/29 12:55:06;;;;;;;3.15;2.85;;;;;;;;;;5141149;27;20219;-92
2023/09/29 12:57:34;;;;;;;3.50;3.20;;;;;;;;;;5144010;27;20215;-92
2023/09/29 13:00:01;;;;;;;3.38;3.03;;;;;;;;;;5150088;27;20650;-91
2023/09/29 13:02:31;;;;;;;2.75;2.53;;;;;;;;;;5150636;27;20227;-91
2023/09/29 13:04:59;;;;;;;4.10;2.67;;;;;;;;;;5129415;27;20688;-92
2023/09/29 13:07:28;;;;;;;2.75;2.58;;;;;;;;;;5134448;27;20207;-91
2023/09/29 13:09:57;;;;;;;3.17;2.97;;;;;;;;;;5138129;27;20815;-91
2023/09/29 13:12:24;;;;;;;3.20;3.00;;;;;;;;;;5138209;27;20581;-90
2023/09/29 13:14:52;;;;;;;2.92;2.67;;;;;;;;;;5137755;27;20222;-91
2023/09/29 13:17:19;;;;;;;3.25;2.97;;;;;;;;;;5137852;27;20202;-91
2023/09/29 13:19:47;;;;;;;2.95;2.67;;;;;;;;;;5138611;27;20229;-92
2023/09/29 13:22:14;;;;;;;2.63;2.42;;;;;;;;;;5137439;27;20198;-90
2023/09/29 13:24:43;;;;;;;3.08;2.78;;;;;;;;;;5137951;27;20228;-92
2023/09/29 13:27:12;;;;;;;5.47;3.58;;;;;;;;;;5138324;27;20564;-91
2023/09/29 13:29:40;;;;;;;2.75;2.53;;;;;;;;;;5145856;27;20222;-91
2023/09/29 13:32:07;;;;;;;4.18;2.58;;;;;;;;;;5138977;27;20283;-91
2023/09/29 13:34:35;;;;;;;2.78;2.58;;;;;;;;;;5134882;27;20586;-91
2023/09/29 13:37:03;;;;;;;2.83;2.63;;;;;;;;;;5126955;27;20254;-90
2023/09/29 13:39:30;;;;;;;2.90;2.70;;;;;;;;;;5139522;27;20246;-90
2023/09/29 13:41:59;;;;;;;3.50;3.20;;;;;;;;;;5161365;27;20199;-90
2023/09/29 13:44:27;;;;;;;2.63;2.42;;;;;;;;;;5161443;27;20189;-89
2023/09/29 13:46:54;;;;;;;2.65;2.45;;;;;;;;;;5161234;27;20206;-88
2023/09/29 13:49:22;;;;;;;2.58;2.38;;;;;;;;;;5140937;27;20381;-91
2023/09/29 13:51:49;;;;;;;3.85;2.65;;;;;;;;;;5137735;27;20217;-90
2023/09/29 13:54:17;;;;;;;2.92;2.72;;;;;;;;;;5137595;27;20289;-90
2023/09/29 13:56:45;;;;;;;4.50;2.65;;;;;;;;;;5137396;27;20305;-91
2023/09/29 13:59:13;;;;;;;6.30;3.25;;;;;;;;;;5137369;27;20223;-91
2023/09/29 14:01:43;;;;;;;3.50;3.30;;;;;;;;;;5138527;27;20583;-90
2023/09/29 14:04:10;;;;;;;3.40;3.10;;;;;;;;;;5138591;27;20226;-90
2023/09/29 14:06:38;;;;;;;2.70;2.50;;;;;;;;;;5125844;27;20219;-91
2023/09/29 14:09:06;;;;;;;2.95;2.65;;;;;;;;;;5139355;27;20215;-90
2023/09/29 14:11:33;;;;;;;2.85;2.65;;;;;;;;;;5136796;27;20278;-91
2023/09/29 14:14:01;;;;;;;5.63;2.90;;;;;;;;;;5137752;27;20198;-90
2023/09/29 14:16:30;;;;;;;2.70;2.50;;;;;;;;;;5137390;27;20219;-92
2023/09/29 14:18:57;;;;;;;2.33;2.13;;;;;;;;;;5136449;27;20222;-91
2023/09/29 14:21:25;;;;;;;2.13;2.03;;;;;;;;;;5141993;27;20254;-91
2023/09/29 14:23:53;;;;;;;2.28;2.08;;;;;;;;;;5137051;27;20195;-91
2023/09/29 14:26:20;;;;;;;2.65;2.40;;;;;;;;;;5137449;27;20203;-91
2023/09/29 14:28:48;;;;;;;2.20;2.10;;;;;;;;;;5136778;27;20606;-91
2023/09/29 14:31:16;;;;;;;3.00;2.58;;;;;;;;;;5137199;27;20233;-92
2023/09/29 14:33:45;;;;;;;2.58;2.38;;;;;;;;;;5136918;27;20194;-90
2023/09/29 14:36:13;;;;;;;2.78;2.40;;;;;;;;;;5122500;27;20318;-92
2023/09/29 14:38:40;;;;;;;2.70;2.47;;;;;;;;;;5140727;27;20205;-92
2023/09/29 14:41:08;;;;;;;2.42;2.22;;;;;;;;;;5137775;27;20195;-91
2023/09/29 14:43:36;;;;;;;1.92;1.83;;;;;;;;;;5137240;27;20306;-90
2023/09/29 14:46:09;;;;;;;2.65;2.45;;;;;;;;;;5136156;27;20202;-91
2023/09/29 14:48:37;;;;;;;2.28;2.17;;;;;;;;;;5140076;27;20199;-92
2023/09/29 14:51:10;;;;;;;2.08;1.98;;;;;;;;;;5135213;27;20586;-92
2023/09/29 14:53:38;;;;;;;2.10;1.90;;;;;;;;;;5136201;27;20195;-91